Terminal Aerodrome Forecast
Issued by NWS Wichita, KS

Home | Current Version | Previous Version | Graphics & Text | Print | Product List | Glossary On
Versions: 1 2 3 4 5 6 7 8 9 10 11 12 13 14 15 16 17
162
FTUS43 KICT 241145
TAFICT
TAF
KICT 241145Z 2412/2512 16009KT P6SM BKN300
     FM241500 17017KT P6SM SCT050 OVC300
     FM241700 18017G22KT P6SM BKN040
     FM242000 19013KT P6SM OVC040
     FM250000 17007KT P6SM OVC050=

USA.gov is the U.S. government's official web portal to all federal, state and local government web resources and services.